createdAt,value
2022-08-19T00:09:12.002Z,99
2022-08-19T00:19:10.676Z,99
2022-08-19T00:29:11.998Z,99
2022-08-19T00:39:10.574Z,99
2022-08-19T00:50:02.448Z,99
2022-08-19T00:59:09.544Z,99
2022-08-19T01:09:11.366Z,99
2022-08-19T01:19:09.631Z,99
2022-08-19T01:29:10.468Z,99
2022-08-19T01:39:09.793Z,99
2022-08-19T01:49:09.643Z,99
2022-08-19T01:59:10.327Z,99
2022-08-19T02:09:10.480Z,99
2022-08-19T02:19:10.263Z,99
2022-08-19T02:29:09.762Z,99
2022-08-19T02:39:10.974Z,99
2022-08-19T02:49:10.033Z,99
2022-08-19T02:59:11.072Z,99
2022-08-19T03:09:09.818Z,99
2022-08-19T03:19:09.849Z,99
2022-08-19T03:29:09.850Z,99
2022-08-19T03:39:12.088Z,99
2022-08-19T03:49:09.889Z,99
2022-08-19T03:59:09.913Z,99
2022-08-19T04:09:11.990Z,99
2022-08-19T04:19:09.931Z,99
2022-08-19T04:29:12.640Z,99
2022-08-19T04:31:36.521Z,99
2022-08-19T04:39:10.011Z,99
2022-08-19T04:49:15.012Z,99
2022-08-19T04:59:10.004Z,99
2022-08-19T05:09:10.235Z,99
2022-08-19T05:19:20.044Z,99
2022-08-19T05:29:11.741Z,99
2022-08-19T05:39:10.240Z,99
2022-08-19T05:49:16.861Z,99
2022-08-19T05:59:10.909Z,99
2022-08-19T06:09:11.662Z,99
2022-08-19T06:19:10.396Z,99
2022-08-19T06:29:12.154Z,99
2022-08-19T06:39:10.351Z,99
2022-08-19T06:49:10.216Z,99
2022-08-19T06:59:11.987Z,99
2022-08-19T07:09:12.247Z,99
2022-08-19T07:19:15.594Z,99
2022-08-19T07:29:10.659Z,99
2022-08-19T07:39:10.364Z,99
2022-08-19T07:49:10.624Z,99
2022-08-19T07:59:11.283Z,99
2022-08-19T08:09:18.213Z,99
2022-08-19T08:19:12.638Z,99
2022-08-19T08:29:12.749Z,99
2022-08-19T08:39:10.509Z,99
2022-08-19T08:49:10.510Z,99
2022-08-19T08:52:18.699Z,99
2022-08-19T08:59:11.076Z,99
2022-08-19T09:09:11.707Z,99
2022-08-19T09:19:10.590Z,99
2022-08-19T09:29:11.274Z,99
2022-08-19T09:39:14.940Z,98
2022-08-19T09:49:10.754Z,95
2022-08-19T09:59:10.632Z,94
2022-08-19T10:09:10.663Z,97
2022-08-19T10:19:13.165Z,99
2022-08-19T10:29:10.827Z,99
2022-08-19T10:39:10.726Z,94
2022-08-19T10:49:10.747Z,92
2022-08-19T10:59:10.743Z,91
2022-08-19T11:09:12.736Z,93
2022-08-19T11:19:12.276Z,92
2022-08-19T11:29:11.165Z,88
2022-08-19T11:39:16.706Z,83
2022-08-19T11:49:14.096Z,83
2022-08-19T11:59:14.557Z,84
2022-08-19T12:09:12.935Z,78
2022-08-19T12:19:11.376Z,77
2022-08-19T12:29:12.208Z,76
2022-08-19T12:39:11.208Z,78
2022-08-19T12:49:16.800Z,73
2022-08-19T12:50:27.177Z,73
2022-08-19T12:59:11.030Z,69
2022-08-19T13:09:11.000Z,69
2022-08-19T13:19:11.286Z,68
2022-08-19T13:29:11.016Z,72
2022-08-19T13:39:12.400Z,72
2022-08-19T13:49:11.326Z,72
2022-08-19T13:59:11.116Z,67
2022-08-19T14:07:59.096Z,67
2022-08-19T14:09:11.273Z,64
2022-08-19T14:19:11.207Z,61
2022-08-19T14:29:13.766Z,63
2022-08-19T14:39:12.239Z,65
2022-08-19T14:45:30.009Z,65
2022-08-19T14:49:11.200Z,66
2022-08-19T14:59:12.945Z,69
2022-08-19T15:09:11.273Z,63
2022-08-19T15:19:17.871Z,61
2022-08-19T15:29:11.567Z,66
2022-08-19T15:39:14.279Z,66
2022-08-19T15:49:11.390Z,66
2022-08-19T15:59:17.453Z,64
2022-08-19T16:09:14.012Z,64
2022-08-19T16:19:13.374Z,64
2022-08-19T16:29:13.653Z,64
2022-08-19T16:39:11.589Z,64
2022-08-19T16:49:11.574Z,63
2022-08-19T16:59:11.475Z,65
2022-08-19T17:09:25.784Z,70
2022-08-19T17:19:12.063Z,73
2022-08-19T17:29:18.461Z,77
2022-08-19T17:39:13.266Z,80
2022-08-19T17:49:11.798Z,84
2022-08-19T17:59:16.030Z,85
2022-08-19T18:09:11.750Z,87
2022-08-19T18:19:11.589Z,88
2022-08-19T18:29:11.899Z,90
2022-08-19T18:39:17.573Z,91
2022-08-19T18:49:12.252Z,93
2022-08-19T18:59:11.517Z,93
2022-08-19T18:59:36.774Z,95
2022-08-19T19:09:11.689Z,98
2022-08-19T19:19:11.699Z,99
2022-08-19T19:29:20.794Z,99
2022-08-19T19:39:29.689Z,99
2022-08-19T19:49:11.987Z,99
2022-08-19T19:59:51.518Z,99
2022-08-19T20:09:17.615Z,99
2022-08-19T20:19:23.032Z,99
2022-08-19T20:29:38.650Z,99
2022-08-19T20:39:11.817Z,99
2022-08-19T20:49:15.465Z,99
2022-08-19T20:59:50.866Z,99
2022-08-19T21:09:18.056Z,99
2022-08-19T21:19:12.162Z,99
2022-08-19T21:29:21.825Z,99
2022-08-19T21:39:11.961Z,99
2022-08-19T21:49:14.103Z,99
2022-08-19T21:59:17.706Z,99
2022-08-19T22:09:20.509Z,99
2022-08-19T22:19:12.039Z,99
2022-08-19T22:29:15.219Z,99
2022-08-19T22:39:12.523Z,99
2022-08-19T22:49:12.209Z,99
2022-08-19T22:59:31.473Z,99
2022-08-19T23:10:01.401Z,99
2022-08-19T23:14:14.163Z,99
2022-08-19T23:19:12.412Z,99
2022-08-19T23:29:13.154Z,99
2022-08-19T23:39:13.009Z,99
2022-08-19T23:49:12.203Z,99
2022-08-19T23:59:14.125Z,99
